Terminal Aerodrome Forecast
Issued by NWS

Home | Current Version | Previous Version | Text Only | Print | Product List | Glossary On
Versions: 1 2 3 4 5 6 7 8 9 10 11 12 13 14 15 16
000
FTUS45 KABQ 031720
TAFLVS
TAF
KLVS 031720Z 0318/0418 23008KT P6SM FEW120
     FM031900 24012KT P6SM SCT070 SCT120
     FM040200 32008KT P6SM SCT100
      AMD NOT SKED=

USA.gov is the U.S. government's official web portal to all federal, state and local government web resources and services.